createdAt,value
2023-02-16T06:32:57.767Z,64.92
2023-02-16T06:35:28.214Z,64.91
2023-02-16T06:37:55.278Z,64.81
2023-02-16T06:40:24.938Z,64.89
2023-02-16T06:42:52.847Z,65.09
2023-02-16T06:45:22.163Z,65.15
2023-02-16T06:47:49.352Z,65.16
2023-02-16T06:50:17.399Z,65.09
2023-02-16T06:52:45.496Z,65.02
2023-02-16T06:55:12.546Z,65.09
2023-02-16T06:57:41.523Z,65.06
2023-02-16T07:00:10.187Z,65.05
2023-02-16T07:02:37.341Z,65.04
2023-02-16T07:05:05.285Z,64.86
2023-02-16T07:07:33.338Z,65.20
2023-02-16T07:10:03.551Z,65.10
2023-02-16T07:12:32.197Z,65.16
2023-02-16T07:15:09.820Z,65.19
2023-02-16T07:17:40.898Z,65.16
2023-02-16T07:20:09.025Z,65.18
2023-02-16T07:22:35.995Z,65.14
2023-02-16T07:25:03.833Z,65.04
2023-02-16T07:27:30.999Z,64.97
2023-02-16T07:30:00.171Z,64.98
2023-02-16T07:32:29.605Z,65.04
2023-02-16T07:37:56.934Z,64.75
2023-02-16T07:40:30.238Z,64.73
2023-02-16T07:43:12.619Z,64.82
2023-02-16T07:45:53.624Z,64.33
2023-02-16T07:48:24.776Z,64.87
2023-02-16T07:50:53.728Z,64.46
2023-02-16T07:53:22.210Z,64.16
2023-02-16T07:55:52.275Z,64.16
2023-02-16T07:58:30.491Z,63.80
2023-02-16T08:01:10.258Z,63.70
2023-02-16T08:03:40.448Z,63.58
2023-02-16T08:06:09.720Z,63.31
2023-02-16T08:08:37.811Z,63.22
2023-02-16T08:11:19.093Z,62.98
2023-02-16T08:13:47.827Z,62.92
2023-02-16T08:16:40.860Z,62.81
2023-02-16T08:19:13.063Z,62.65
2023-02-16T08:21:47.982Z,62.77
2023-02-16T08:24:16.846Z,62.69
2023-02-16T08:26:49.311Z,62.60
2023-02-16T08:29:19.573Z,62.32
2023-02-16T08:31:49.681Z,61.94
2023-02-16T08:34:18.960Z,61.63
2023-02-16T08:36:58.417Z,61.83
2023-02-16T08:39:27.745Z,62.06
2023-02-16T08:41:55.016Z,62.08
2023-02-16T08:44:23.164Z,61.83
2023-02-16T08:46:57.253Z,61.65
2023-02-16T08:49:32.789Z,61.67
2023-02-16T08:52:01.934Z,61.78
2023-02-16T08:54:30.305Z,61.82
2023-02-16T08:57:04.591Z,61.90
2023-02-16T08:59:33.171Z,61.76
2023-02-16T09:02:11.793Z,61.61
2023-02-16T09:04:39.160Z,61.82
2023-02-16T09:07:07.800Z,61.72
2023-02-16T09:09:35.474Z,61.37
2023-02-16T09:12:07.430Z,61.49
2023-02-16T09:14:38.634Z,61.36
2023-02-16T09:17:06.115Z,61.12
2023-02-16T09:19:36.229Z,60.95
2023-02-16T09:22:18.185Z,60.62
2023-02-16T09:24:50.285Z,60.42
2023-02-16T09:27:17.660Z,60.83
2023-02-16T09:29:58.801Z,60.54
2023-02-16T09:32:30.357Z,60.57
2023-02-16T09:35:04.172Z,60.24
2023-02-16T09:37:32.789Z,60.21
2023-02-16T09:40:31.791Z,60.43
2023-02-16T09:43:10.027Z,59.71
2023-02-16T09:45:44.195Z,58.95
2023-02-16T09:48:30.032Z,58.43
2023-02-16T09:51:01.651Z,58.28
2023-02-16T09:53:42.432Z,57.77
2023-02-16T09:56:30.196Z,57.39
2023-02-16T09:59:10.790Z,56.79
2023-02-16T10:01:51.627Z,56.38
2023-02-16T10:05:00.444Z,56.26
2023-02-16T10:07:54.346Z,55.84
2023-02-16T10:10:23.583Z,55.47
2023-02-16T10:13:11.365Z,55.03
2023-02-16T10:15:43.550Z,54.55
2023-02-16T10:18:36.255Z,54.36
2023-02-16T10:21:07.252Z,53.98
2023-02-16T10:23:45.368Z,53.54
2023-02-16T10:26:41.782Z,53.27
2023-02-16T10:29:13.703Z,53.01
2023-02-16T10:31:44.084Z,53.11
2023-02-16T10:34:14.170Z,53.11
2023-02-16T10:37:53.341Z,53.14
2023-02-16T10:41:08.870Z,52.70
2023-02-16T10:43:55.212Z,52.52
2023-02-16T10:46:25.238Z,52.43
2023-02-16T10:48:55.161Z,52.47
2023-02-16T10:51:27.606Z,52.69
2023-02-16T10:54:01.795Z,52.86
2023-02-16T10:56:46.133Z,53.06
2023-02-16T10:59:20.820Z,53.20
2023-02-16T11:02:02.335Z,53.61
2023-02-16T11:04:36.074Z,53.83
2023-02-16T11:07:12.154Z,54.05
2023-02-16T11:09:56.751Z,53.96
2023-02-16T11:12:26.532Z,54.10
2023-02-16T11:15:19.618Z,54.00
2023-02-16T11:18:08.043Z,54.00
2023-02-16T11:20:47.801Z,54.11
2023-02-16T11:23:25.483Z,54.35
2023-02-16T11:26:05.800Z,54.28
2023-02-16T11:28:48.634Z,54.34
2023-02-16T11:31:54.540Z,54.51
2023-02-16T11:34:45.379Z,54.74
2023-02-16T11:37:31.809Z,54.63
2023-02-16T11:40:26.209Z,54.59
2023-02-16T11:42:56.980Z,54.64
2023-02-16T11:45:34.947Z,54.40
2023-02-16T11:48:14.146Z,54.11
2023-02-16T11:51:02.577Z,54.00
2023-02-16T11:53:34.780Z,53.80
2023-02-16T11:56:23.573Z,53.58
2023-02-16T11:59:17.706Z,53.46
2023-02-16T12:02:17.547Z,53.32
2023-02-16T12:05:29.074Z,53.30
2023-02-16T12:08:15.706Z,53.27
2023-02-16T12:11:31.843Z,53.08
2023-02-16T12:14:51.767Z,52.83
2023-02-16T12:18:01.452Z,53.05
2023-02-16T12:20:51.871Z,53.25
2023-02-16T12:23:47.976Z,53.67
2023-02-16T12:26:49.457Z,53.92
2023-02-16T12:29:35.749Z,54.39
2023-02-16T12:32:24.252Z,54.39
2023-02-16T12:35:09.134Z,54.20
2023-02-16T12:37:52.047Z,54.44
2023-02-16T12:40:49.112Z,54.79
2023-02-16T12:43:44.953Z,54.60
2023-02-16T12:46:40.071Z,54.58
2023-02-16T12:49:13.325Z,54.41
2023-02-16T12:52:22.863Z,54.39
2023-02-16T12:55:01.614Z,54.39
2023-02-16T12:57:33.138Z,54.43
2023-02-16T13:00:32.105Z,54.83
2023-02-16T13:03:29.051Z,55.10
2023-02-16T13:06:19.080Z,55.20
2023-02-16T13:09:24.322Z,55.45
2023-02-16T13:11:51.781Z,55.47
2023-02-16T13:14:25.900Z,55.72
2023-02-16T13:17:05.154Z,55.71
2023-02-16T13:19:47.487Z,55.81
2023-02-16T13:23:01.598Z,55.81
2023-02-16T13:26:00.068Z,55.64
2023-02-16T13:28:47.404Z,55.86
2023-02-16T13:31:23.110Z,55.61
2023-02-16T13:34:07.461Z,55.63
2023-02-16T13:37:11.729Z,55.89
2023-02-16T13:40:16.397Z,55.85
2023-02-16T13:43:13.526Z,56.23
2023-02-16T13:45:42.312Z,56.39
2023-02-16T13:48:27.780Z,56.43
2023-02-16T13:51:01.164Z,56.55
2023-02-16T13:53:39.580Z,56.72
2023-02-16T13:56:35.746Z,56.75
2023-02-16T13:59:18.248Z,56.96
2023-02-16T14:01:47.149Z,56.80
2023-02-16T14:04:23.521Z,56.85
2023-02-16T14:07:46.755Z,56.94
2023-02-16T14:10:19.461Z,57.14
2023-02-16T14:13:13.421Z,56.89
2023-02-16T14:15:51.638Z,56.94
2023-02-16T14:18:32.329Z,56.86
2023-02-16T14:21:03.189Z,56.94
2023-02-16T14:23:34.761Z,57.16
2023-02-16T14:26:09.627Z,57.31
2023-02-16T14:28:59.482Z,57.31
2023-02-16T14:31:29.745Z,57.46
2023-02-16T14:34:05.164Z,57.64
2023-02-16T14:36:33.053Z,57.77
2023-02-16T14:39:02.886Z,57.99
2023-02-16T14:41:34.276Z,57.97
2023-02-16T14:44:24.885Z,58.08
2023-02-16T14:47:13.911Z,58.39
2023-02-16T14:50:03.050Z,58.08
2023-02-16T14:52:41.341Z,58.51
2023-02-16T14:55:22.958Z,58.48
2023-02-16T14:58:31.336Z,58.99
2023-02-16T15:01:09.744Z,59.18
2023-02-16T15:03:41.330Z,59.52
2023-02-16T15:06:17.511Z,59.52
2023-02-16T15:09:04.862Z,59.43
2023-02-16T15:12:21.337Z,59.66
2023-02-16T15:14:59.741Z,59.96
2023-02-16T15:17:41.477Z,60.03
2023-02-16T15:20:46.540Z,60.05
2023-02-16T15:23:20.324Z,60.41
2023-02-16T15:25:58.784Z,60.43
2023-02-16T15:28:30.246Z,60.75
2023-02-16T15:31:00.812Z,60.97
2023-02-16T15:33:37.170Z,60.83
2023-02-16T15:36:15.255Z,60.97
2023-02-16T15:38:54.895Z,61.21
2023-02-16T15:41:31.120Z,61.30
2023-02-16T15:43:58.755Z,61.16
2023-02-16T15:46:29.699Z,61.38
2023-02-16T15:48:56.956Z,61.45
2023-02-16T15:51:32.527Z,61.47
2023-02-16T15:54:24.142Z,61.55
2023-02-16T15:56:58.469Z,61.99
2023-02-16T15:59:32.019Z,62.14
2023-02-16T16:02:08.487Z,62.60
2023-02-16T16:04:39.577Z,62.75
2023-02-16T16:07:11.680Z,63.26
2023-02-16T16:09:39.802Z,63.52
2023-02-16T16:12:15.941Z,64.07
2023-02-16T16:14:56.457Z,64.13
2023-02-16T16:17:38.137Z,64.42
2023-02-16T16:20:25.407Z,64.59
2023-02-16T16:23:18.806Z,64.86
2023-02-16T16:25:50.335Z,65.20
2023-02-16T16:28:27.297Z,65.36
2023-02-16T16:31:16.712Z,65.69
2023-02-16T16:34:09.699Z,65.97
2023-02-16T16:36:47.455Z,66.40
2023-02-16T16:39:17.169Z,66.76
2023-02-16T16:42:07.427Z,66.44
2023-02-16T16:44:54.322Z,66.70
2023-02-16T16:47:30.920Z,66.51
2023-02-16T16:50:24.076Z,66.46
2023-02-16T16:52:54.542Z,66.79
2023-02-16T16:55:35.135Z,66.85
2023-02-16T16:58:09.718Z,66.72
2023-02-16T17:00:39.372Z,66.73
2023-02-16T17:03:09.141Z,66.84
2023-02-16T17:05:37.816Z,67.14
2023-02-16T17:08:05.873Z,67.45
2023-02-16T17:10:38.624Z,67.59
2023-02-16T17:13:06.863Z,68.10
2023-02-16T17:15:41.631Z,68.22
2023-02-16T17:18:18.029Z,68.64
2023-02-16T17:20:46.228Z,68.97
2023-02-16T17:23:52.605Z,68.74
2023-02-16T17:26:40.648Z,69.25
2023-02-16T17:29:12.098Z,69.34
2023-02-16T17:31:52.009Z,69.73
2023-02-16T17:34:31.454Z,69.86
2023-02-16T17:37:19.653Z,69.98
2023-02-16T17:40:01.102Z,70.18
2023-02-16T17:42:28.438Z,70.37
2023-02-16T17:45:00.323Z,70.21
2023-02-16T17:47:30.298Z,70.65
2023-02-16T17:49:58.858Z,70.53
2023-02-16T17:52:34.368Z,70.77
2023-02-16T17:55:07.735Z,70.86
2023-02-16T17:57:41.812Z,71.05
2023-02-16T18:00:17.445Z,71.32
2023-02-16T18:02:48.674Z,71.37
2023-02-16T18:05:18.603Z,71.41
2023-02-16T18:07:48.464Z,71.76
2023-02-16T18:14:39.325Z,71.96
2023-02-16T18:17:10.040Z,72.25
2023-02-16T18:19:40.600Z,72.50
2023-02-16T18:22:10.668Z,72.17
2023-02-16T18:24:42.679Z,72.66
2023-02-16T18:27:11.793Z,72.89
2023-02-16T18:29:42.452Z,72.80
2023-02-16T18:32:13.514Z,73.04
2023-02-16T18:34:42.109Z,73.24
2023-02-16T18:37:09.089Z,73.22
2023-02-16T18:39:42.675Z,73.32
2023-02-16T18:42:10.816Z,73.52
2023-02-16T18:44:53.194Z,73.47
2023-02-16T18:47:53.222Z,73.37
2023-02-16T18:50:22.727Z,73.72
2023-02-16T18:52:53.396Z,73.65
2023-02-16T18:55:32.331Z,73.94
2023-02-16T18:58:28.803Z,73.88
2023-02-16T19:00:59.062Z,73.97
2023-02-16T19:03:39.373Z,74.17
2023-02-16T19:06:08.858Z,73.94
2023-02-16T19:08:37.595Z,74.10
2023-02-16T19:11:06.579Z,73.90
2023-02-16T19:13:41.484Z,74.21
2023-02-16T19:16:11.453Z,74.41
2023-02-16T19:18:39.316Z,74.34
2023-02-16T19:21:08.413Z,74.39
2023-02-16T19:23:42.864Z,74.40
2023-02-16T19:26:12.136Z,74.65
2023-02-16T19:28:40.286Z,74.69
2023-02-16T19:31:15.098Z,74.66
2023-02-16T19:33:47.218Z,74.93
2023-02-16T19:36:14.266Z,74.93
2023-02-16T19:38:44.923Z,75.18
2023-02-16T19:41:28.053Z,75.22
2023-02-16T19:43:56.738Z,75.47
2023-02-16T19:46:24.397Z,75.45
2023-02-16T19:48:56.946Z,75.46
2023-02-16T19:51:25.042Z,75.58
2023-02-16T19:53:55.580Z,75.40
2023-02-16T19:56:24.383Z,75.41
2023-02-16T19:58:51.788Z,75.44
2023-02-16T20:01:23.654Z,75.44
2023-02-16T20:03:52.081Z,75.56
2023-02-16T20:06:29.686Z,75.61
2023-02-16T20:09:01.518Z,75.75
2023-02-16T20:11:32.128Z,75.70
2023-02-16T20:13:59.794Z,75.64
2023-02-16T20:16:27.685Z,75.80
2023-02-16T20:18:56.423Z,75.80
2023-02-16T20:21:29.527Z,75.91
2023-02-16T20:24:00.591Z,75.87
2023-02-16T20:26:29.665Z,76.22
2023-02-16T20:28:57.689Z,76.18
2023-02-16T20:31:38.980Z,76.35
2023-02-16T20:34:06.883Z,76.47
2023-02-16T20:36:34.993Z,76.53
2023-02-16T20:39:05.328Z,76.55
2023-02-16T20:41:32.663Z,76.67
2023-02-16T20:44:03.558Z,76.77
2023-02-16T20:46:31.267Z,76.67
2023-02-16T20:49:00.446Z,76.97
2023-02-16T20:51:28.051Z,77.11
2023-02-16T20:53:55.386Z,77.40
2023-02-16T20:56:23.540Z,77.49
2023-02-16T20:58:57.509Z,77.61
2023-02-16T21:01:30.208Z,77.52
2023-02-16T21:03:57.985Z,77.72
2023-02-16T21:06:29.331Z,77.71
2023-02-16T21:08:58.045Z,77.98
2023-02-16T21:11:26.870Z,78.00
2023-02-16T21:13:57.486Z,78.29
2023-02-16T21:16:27.122Z,78.36
2023-02-16T21:18:55.811Z,78.51
2023-02-16T21:21:23.944Z,78.57
2023-02-16T21:23:54.729Z,78.66
2023-02-16T21:26:24.396Z,78.73
2023-02-16T21:28:51.600Z,78.75
2023-02-16T21:31:21.302Z,78.91
2023-02-16T21:33:51.223Z,79.24
2023-02-16T21:36:21.008Z,79.20
2023-02-16T21:38:51.666Z,79.32
2023-02-16T21:41:27.310Z,79.41
2023-02-16T21:44:09.020Z,79.46
2023-02-16T21:46:40.255Z,79.47
2023-02-16T21:49:18.876Z,79.56
2023-02-16T21:51:48.122Z,79.75
2023-02-16T21:54:43.947Z,80.01
2023-02-16T21:57:11.243Z,80.16
2023-02-16T21:59:38.486Z,80.13
2023-02-16T22:02:09.557Z,80.38
2023-02-16T22:04:39.180Z,80.56
2023-02-16T22:07:10.563Z,80.61
2023-02-16T22:09:45.979Z,80.77
2023-02-16T22:12:18.198Z,81.03
2023-02-16T22:14:46.299Z,80.92
2023-02-16T22:17:13.989Z,80.99
2023-02-16T22:19:42.411Z,81.29
2023-02-16T22:22:13.052Z,82.21
2023-02-16T22:24:41.747Z,82.38
2023-02-16T22:27:09.313Z,82.73
2023-02-16T22:29:37.575Z,83.44
2023-02-16T22:32:05.062Z,83.30
2023-02-16T22:34:34.820Z,83.28
2023-02-16T22:37:01.890Z,83.08
2023-02-16T22:39:36.097Z,83.27
2023-02-16T22:42:03.933Z,83.19
2023-02-16T22:44:33.355Z,83.47
2023-02-16T22:47:00.930Z,83.45
2023-02-16T22:49:31.216Z,83.41
2023-02-16T22:51:58.832Z,83.24
2023-02-16T22:54:33.247Z,83.25
2023-02-16T22:57:02.276Z,83.39
2023-02-16T22:59:30.092Z,83.57
2023-02-16T23:01:57.636Z,83.60
2023-02-16T23:04:24.654Z,83.44
2023-02-16T23:06:51.937Z,83.58
2023-02-16T23:09:24.114Z,84.20
2023-02-16T23:11:52.381Z,83.81
2023-02-16T23:14:20.221Z,83.72
2023-02-16T23:16:50.172Z,83.63
2023-02-16T23:19:20.263Z,83.70
2023-02-16T23:21:49.700Z,83.70
2023-02-16T23:24:18.516Z,83.64
2023-02-16T23:26:46.073Z,83.86
2023-02-16T23:29:18.232Z,83.88
2023-02-16T23:31:47.746Z,83.99
2023-02-16T23:34:14.879Z,84.15
2023-02-16T23:36:44.657Z,84.40
2023-02-16T23:39:16.696Z,84.68
2023-02-16T23:41:44.764Z,84.84
2023-02-16T23:44:12.852Z,84.83
2023-02-16T23:46:39.832Z,84.94
2023-02-16T23:49:06.884Z,84.98
2023-02-16T23:51:35.241Z,85.01
2023-02-16T23:54:02.651Z,85.08
2023-02-16T23:56:38.175Z,85.12
2023-02-16T23:59:06.022Z,85.20
